sensor_id;sensor_type;location;lat;lon;timestamp;P1;durP1;ratioP1;P2;durP2;ratioP2
31786;SDS011;18356;52.380;9.820;2023-02-26T00:02:13;6.93;;;2.30;;
31786;SDS011;18356;52.380;9.820;2023-02-26T00:04:39;7.23;;;2.97;;
31786;SDS011;18356;52.380;9.820;2023-02-26T00:07:05;6.93;;;2.50;;
31786;SDS011;18356;52.380;9.820;2023-02-26T00:09:31;10.20;;;2.33;;
31786;SDS011;18356;52.380;9.820;2023-02-26T00:11:57;7.10;;;2.13;;
31786;SDS011;18356;52.380;9.820;2023-02-26T00:14:23;7.83;;;1.90;;
31786;SDS011;18356;52.380;9.820;2023-02-26T00:16:56;12.03;;;2.20;;
31786;SDS011;18356;52.380;9.820;2023-02-26T00:19:30;9.30;;;2.13;;
31786;SDS011;18356;52.380;9.820;2023-02-26T00:21:56;7.43;;;2.10;;
31786;SDS011;18356;52.380;9.820;2023-02-26T00:24:22;9.23;;;2.20;;
31786;SDS011;18356;52.380;9.820;2023-02-26T00:26:48;7.53;;;2.33;;
31786;SDS011;18356;52.380;9.820;2023-02-26T00:29:14;6.43;;;2.00;;
31786;SDS011;18356;52.380;9.820;2023-02-26T00:31:40;8.67;;;2.07;;
31786;SDS011;18356;52.380;9.820;2023-02-26T00:34:09;6.60;;;2.17;;
31786;SDS011;18356;52.380;9.820;2023-02-26T00:40:13;5.87;;;2.03;;
31786;SDS011;18356;52.380;9.820;2023-02-26T00:42:06;6.73;;;1.93;;
31786;SDS011;18356;52.380;9.820;2023-02-26T00:44:32;4.87;;;1.80;;
31786;SDS011;18356;52.380;9.820;2023-02-26T00:52:13;8.20;;;2.00;;
31786;SDS011;18356;52.380;9.820;2023-02-26T00:54:41;9.87;;;2.77;;
31786;SDS011;18356;52.380;9.820;2023-02-26T00:57:07;10.60;;;1.63;;
31786;SDS011;18356;52.380;9.820;2023-02-26T00:59:33;9.73;;;2.07;;
31786;SDS011;18356;52.380;9.820;2023-02-26T01:01:59;6.53;;;2.10;;
31786;SDS011;18356;52.380;9.820;2023-02-26T01:04:25;6.00;;;1.83;;
31786;SDS011;18356;52.380;9.820;2023-02-26T01:06:53;7.20;;;1.90;;
31786;SDS011;18356;52.380;9.820;2023-02-26T01:11:52;8.93;;;1.60;;
31786;SDS011;18356;52.380;9.820;2023-02-26T01:14:18;11.03;;;1.30;;
31786;SDS011;18356;52.380;9.820;2023-02-26T01:17:00;8.47;;;1.70;;
31786;SDS011;18356;52.380;9.820;2023-02-26T01:19:32;5.87;;;1.50;;
31786;SDS011;18356;52.380;9.820;2023-02-26T01:24:53;9.50;;;1.90;;
31786;SDS011;18356;52.380;9.820;2023-02-26T01:27:21;7.10;;;1.20;;
31786;SDS011;18356;52.380;9.820;2023-02-26T01:29:47;10.27;;;2.00;;
31786;SDS011;18356;52.380;9.820;2023-02-26T01:34:59;5.10;;;1.47;;
31786;SDS011;18356;52.380;9.820;2023-02-26T01:37:32;4.47;;;1.30;;
31786;SDS011;18356;52.380;9.820;2023-02-26T01:42:44;5.90;;;1.60;;
31786;SDS011;18356;52.380;9.820;2023-02-26T01:45:13;5.23;;;1.97;;
31786;SDS011;18356;52.380;9.820;2023-02-26T01:50:17;6.53;;;1.30;;
31786;SDS011;18356;52.380;9.820;2023-02-26T01:55:13;8.10;;;1.40;;
31786;SDS011;18356;52.380;9.820;2023-02-26T01:57:39;5.87;;;1.60;;
31786;SDS011;18356;52.380;9.820;2023-02-26T02:00:05;7.87;;;1.57;;
31786;SDS011;18356;52.380;9.820;2023-02-26T02:02:32;6.23;;;1.60;;
31786;SDS011;18356;52.380;9.820;2023-02-26T02:05:00;6.50;;;1.40;;
31786;SDS011;18356;52.380;9.820;2023-02-26T02:07:27;6.47;;;1.60;;
31786;SDS011;18356;52.380;9.820;2023-02-26T02:09:54;4.67;;;1.40;;
31786;SDS011;18356;52.380;9.820;2023-02-26T02:15:19;10.67;;;1.60;;
31786;SDS011;18356;52.380;9.820;2023-02-26T02:25:37;6.03;;;1.50;;
31786;SDS011;18356;52.380;9.820;2023-02-26T02:33:31;7.73;;;1.60;;
31786;SDS011;18356;52.380;9.820;2023-02-26T02:36:00;6.00;;;1.50;;
31786;SDS011;18356;52.380;9.820;2023-02-26T02:41:04;3.73;;;1.60;;
31786;SDS011;18356;52.380;9.820;2023-02-26T02:43:31;6.17;;;1.80;;
31786;SDS011;18356;52.380;9.820;2023-02-26T02:46:05;7.50;;;1.87;;
31786;SDS011;18356;52.380;9.820;2023-02-26T02:48:34;11.60;;;1.63;;
31786;SDS011;18356;52.380;9.820;2023-02-26T02:51:09;6.50;;;1.50;;
31786;SDS011;18356;52.380;9.820;2023-02-26T02:53:38;7.10;;;1.43;;
31786;SDS011;18356;52.380;9.820;2023-02-26T02:56:12;6.20;;;1.43;;
31786;SDS011;18356;52.380;9.820;2023-02-26T02:58:41;7.43;;;1.37;;
31786;SDS011;18356;52.380;9.820;2023-02-26T03:01:10;3.73;;;1.43;;
31786;SDS011;18356;52.380;9.820;2023-02-26T03:04:12;4.23;;;1.30;;
31786;SDS011;18356;52.380;9.820;2023-02-26T03:06:30;7.30;;;1.27;;
31786;SDS011;18356;52.380;9.820;2023-02-26T03:08:56;3.93;;;1.47;;
31786;SDS011;18356;52.380;9.820;2023-02-26T03:11:23;4.63;;;1.30;;
31786;SDS011;18356;52.380;9.820;2023-02-26T03:13:49;4.27;;;1.50;;
31786;SDS011;18356;52.380;9.820;2023-02-26T03:29:25;7.60;;;1.50;;
31786;SDS011;18356;52.380;9.820;2023-02-26T03:37:03;6.53;;;1.30;;
31786;SDS011;18356;52.380;9.820;2023-02-26T03:39:36;6.57;;;1.27;;
31786;SDS011;18356;52.380;9.820;2023-02-26T03:44:40;3.97;;;1.30;;
31786;SDS011;18356;52.380;9.820;2023-02-26T03:47:08;8.20;;;1.60;;
31786;SDS011;18356;52.380;9.820;2023-02-26T03:49:36;8.07;;;1.70;;
31786;SDS011;18356;52.380;9.820;2023-02-26T03:52:02;5.30;;;1.60;;
31786;SDS011;18356;52.380;9.820;2023-02-26T03:54:30;6.10;;;1.40;;
31786;SDS011;18356;52.380;9.820;2023-02-26T03:56:57;5.87;;;1.50;;
31786;SDS011;18356;52.380;9.820;2023-02-26T03:59:23;8.17;;;1.80;;
31786;SDS011;18356;52.380;9.820;2023-02-26T04:07:06;4.43;;;1.60;;
31786;SDS011;18356;52.380;9.820;2023-02-26T04:09:32;8.83;;;1.30;;
31786;SDS011;18356;52.380;9.820;2023-02-26T04:11:58;10.47;;;1.83;;
31786;SDS011;18356;52.380;9.820;2023-02-26T04:14:24;6.57;;;1.90;;
31786;SDS011;18356;52.380;9.820;2023-02-26T04:16:50;9.63;;;1.87;;
31786;SDS011;18356;52.380;9.820;2023-02-26T04:19:16;7.50;;;1.70;;
31786;SDS011;18356;52.380;9.820;2023-02-26T04:21:42;5.10;;;1.70;;
31786;SDS011;18356;52.380;9.820;2023-02-26T04:24:08;6.30;;;1.63;;
31786;SDS011;18356;52.380;9.820;2023-02-26T04:26:34;4.33;;;1.40;;
31786;SDS011;18356;52.380;9.820;2023-02-26T04:29:00;8.37;;;1.80;;
31786;SDS011;18356;52.380;9.820;2023-02-26T04:31:26;7.67;;;1.93;;
31786;SDS011;18356;52.380;9.820;2023-02-26T04:33:52;5.87;;;1.40;;
31786;SDS011;18356;52.380;9.820;2023-02-26T04:36:18;5.07;;;1.57;;
31786;SDS011;18356;52.380;9.820;2023-02-26T04:38:44;8.97;;;1.70;;
31786;SDS011;18356;52.380;9.820;2023-02-26T04:41:10;4.67;;;1.20;;
31786;SDS011;18356;52.380;9.820;2023-02-26T04:43:36;6.97;;;1.43;;
31786;SDS011;18356;52.380;9.820;2023-02-26T04:46:03;4.67;;;1.33;;
31786;SDS011;18356;52.380;9.820;2023-02-26T04:48:29;5.10;;;1.20;;
31786;SDS011;18356;52.380;9.820;2023-02-26T04:50:55;10.67;;;1.57;;
31786;SDS011;18356;52.380;9.820;2023-02-26T04:53:21;6.40;;;1.20;;
31786;SDS011;18356;52.380;9.820;2023-02-26T04:55:47;5.87;;;1.60;;
31786;SDS011;18356;52.380;9.820;2023-02-26T04:58:13;4.33;;;1.10;;
31786;SDS011;18356;52.380;9.820;2023-02-26T05:00:39;8.67;;;1.73;;
31786;SDS011;18356;52.380;9.820;2023-02-26T05:03:06;3.33;;;1.30;;
31786;SDS011;18356;52.380;9.820;2023-02-26T05:05:34;4.47;;;1.30;;
31786;SDS011;18356;52.380;9.820;2023-02-26T05:08:00;5.10;;;1.10;;
31786;SDS011;18356;52.380;9.820;2023-02-26T05:10:26;10.50;;;1.60;;
31786;SDS011;18356;52.380;9.820;2023-02-26T05:12:52;6.83;;;1.20;;
31786;SDS011;18356;52.380;9.820;2023-02-26T05:15:18;4.90;;;1.23;;
31786;SDS011;18356;52.380;9.820;2023-02-26T05:17:44;6.87;;;1.83;;
31786;SDS011;18356;52.380;9.820;2023-02-26T05:20:10;5.90;;;1.77;;
31786;SDS011;18356;52.380;9.820;2023-02-26T05:22:37;6.47;;;1.20;;
31786;SDS011;18356;52.380;9.820;2023-02-26T05:25:04;7.87;;;1.00;;
31786;SDS011;18356;52.380;9.820;2023-02-26T05:27:30;5.93;;;1.10;;
31786;SDS011;18356;52.380;9.820;2023-02-26T05:29:56;5.47;;;1.40;;
31786;SDS011;18356;52.380;9.820;2023-02-26T05:32:22;8.67;;;1.30;;
31786;SDS011;18356;52.380;9.820;2023-02-26T05:34:48;4.37;;;1.20;;
31786;SDS011;18356;52.380;9.820;2023-02-26T05:37:14;3.17;;;1.27;;
31786;SDS011;18356;52.380;9.820;2023-02-26T05:39:40;3.27;;;1.10;;
31786;SDS011;18356;52.380;9.820;2023-02-26T05:42:08;6.13;;;1.10;;
31786;SDS011;18356;52.380;9.820;2023-02-26T05:44:34;5.33;;;1.20;;
31786;SDS011;18356;52.380;9.820;2023-02-26T05:47:00;3.53;;;1.07;;
31786;SDS011;18356;52.380;9.820;2023-02-26T05:49:26;6.87;;;1.30;;
31786;SDS011;18356;52.380;9.820;2023-02-26T05:51:52;9.43;;;1.10;;
31786;SDS011;18356;52.380;9.820;2023-02-26T05:54:18;3.70;;;0.83;;
31786;SDS011;18356;52.380;9.820;2023-02-26T05:56:44;6.73;;;1.27;;
31786;SDS011;18356;52.380;9.820;2023-02-26T05:59:10;9.17;;;1.20;;
31786;SDS011;18356;52.380;9.820;2023-02-26T06:01:37;4.17;;;1.10;;
31786;SDS011;18356;52.380;9.820;2023-02-26T06:04:03;4.53;;;1.50;;
31786;SDS011;18356;52.380;9.820;2023-02-26T06:06:29;2.90;;;0.77;;
31786;SDS011;18356;52.380;9.820;2023-02-26T06:08:55;4.20;;;1.33;;
31786;SDS011;18356;52.380;9.820;2023-02-26T06:11:21;7.37;;;1.27;;
31786;SDS011;18356;52.380;9.820;2023-02-26T06:13:47;4.30;;;1.20;;
31786;SDS011;18356;52.380;9.820;2023-02-26T06:16:13;6.27;;;1.13;;
31786;SDS011;18356;52.380;9.820;2023-02-26T06:18:39;7.57;;;1.93;;
31786;SDS011;18356;52.380;9.820;2023-02-26T06:21:05;4.53;;;1.27;;
31786;SDS011;18356;52.380;9.820;2023-02-26T06:23:31;8.17;;;1.63;;
31786;SDS011;18356;52.380;9.820;2023-02-26T06:25:57;4.87;;;1.33;;
31786;SDS011;18356;52.380;9.820;2023-02-26T06:28:24;8.07;;;1.67;;
31786;SDS011;18356;52.380;9.820;2023-02-26T06:30:53;7.13;;;1.40;;
31786;SDS011;18356;52.380;9.820;2023-02-26T06:33:19;3.20;;;1.00;;
31786;SDS011;18356;52.380;9.820;2023-02-26T06:35:45;5.07;;;1.63;;
31786;SDS011;18356;52.380;9.820;2023-02-26T06:38:12;8.33;;;1.20;;
31786;SDS011;18356;52.380;9.820;2023-02-26T06:40:38;5.40;;;1.10;;
31786;SDS011;18356;52.380;9.820;2023-02-26T06:43:04;5.20;;;1.00;;
31786;SDS011;18356;52.380;9.820;2023-02-26T06:45:30;4.43;;;1.13;;
31786;SDS011;18356;52.380;9.820;2023-02-26T06:47:56;5.57;;;1.47;;
31786;SDS011;18356;52.380;9.820;2023-02-26T06:50:22;8.27;;;1.73;;
31786;SDS011;18356;52.380;9.820;2023-02-26T06:52:48;7.73;;;1.50;;
31786;SDS011;18356;52.380;9.820;2023-02-26T06:55:15;7.20;;;1.43;;
31786;SDS011;18356;52.380;9.820;2023-02-26T06:57:41;4.30;;;1.30;;
31786;SDS011;18356;52.380;9.820;2023-02-26T07:00:07;5.10;;;1.53;;
31786;SDS011;18356;52.380;9.820;2023-02-26T07:02:33;5.07;;;1.10;;
31786;SDS011;18356;52.380;9.820;2023-02-26T07:04:59;7.83;;;1.40;;
31786;SDS011;18356;52.380;9.820;2023-02-26T07:07:25;4.13;;;1.20;;
31786;SDS011;18356;52.380;9.820;2023-02-26T07:09:51;5.30;;;1.47;;
31786;SDS011;18356;52.380;9.820;2023-02-26T07:12:17;3.83;;;1.13;;
31786;SDS011;18356;52.380;9.820;2023-02-26T07:14:43;5.93;;;1.80;;
31786;SDS011;18356;52.380;9.820;2023-02-26T07:17:10;9.93;;;1.53;;
31786;SDS011;18356;52.380;9.820;2023-02-26T07:19:44;4.93;;;1.40;;
31786;SDS011;18356;52.380;9.820;2023-02-26T07:22:10;3.27;;;1.30;;
31786;SDS011;18356;52.380;9.820;2023-02-26T07:24:36;4.03;;;1.73;;
31786;SDS011;18356;52.380;9.820;2023-02-26T07:27:02;4.67;;;1.30;;
31786;SDS011;18356;52.380;9.820;2023-02-26T07:29:28;4.03;;;1.33;;
31786;SDS011;18356;52.380;9.820;2023-02-26T07:31:54;11.37;;;1.90;;
31786;SDS011;18356;52.380;9.820;2023-02-26T07:34:20;3.90;;;1.17;;
31786;SDS011;18356;52.380;9.820;2023-02-26T07:36:46;5.43;;;1.67;;
31786;SDS011;18356;52.380;9.820;2023-02-26T07:39:12;8.67;;;1.43;;
31786;SDS011;18356;52.380;9.820;2023-02-26T07:41:38;5.23;;;1.70;;
31786;SDS011;18356;52.380;9.820;2023-02-26T07:44:04;8.10;;;1.70;;
31786;SDS011;18356;52.380;9.820;2023-02-26T07:46:31;2.93;;;1.00;;
31786;SDS011;18356;52.380;9.820;2023-02-26T07:48:57;8.70;;;1.83;;
31786;SDS011;18356;52.380;9.820;2023-02-26T07:51:23;7.27;;;1.50;;
31786;SDS011;18356;52.380;9.820;2023-02-26T07:53:49;9.70;;;1.20;;
31786;SDS011;18356;52.380;9.820;2023-02-26T07:56:15;8.40;;;1.50;;
31786;SDS011;18356;52.380;9.820;2023-02-26T07:58:41;5.00;;;1.57;;
31786;SDS011;18356;52.380;9.820;2023-02-26T08:01:07;5.10;;;1.30;;
31786;SDS011;18356;52.380;9.820;2023-02-26T08:03:33;7.60;;;1.67;;
31786;SDS011;18356;52.380;9.820;2023-02-26T08:05:59;6.90;;;1.40;;
31786;SDS011;18356;52.380;9.820;2023-02-26T08:08:25;2.33;;;0.90;;
31786;SDS011;18356;52.380;9.820;2023-02-26T08:10:51;3.80;;;1.30;;
31786;SDS011;18356;52.380;9.820;2023-02-26T08:13:17;6.33;;;1.20;;
31786;SDS011;18356;52.380;9.820;2023-02-26T08:15:44;3.80;;;1.50;;
31786;SDS011;18356;52.380;9.820;2023-02-26T08:18:10;1.97;;;0.93;;
31786;SDS011;18356;52.380;9.820;2023-02-26T08:20:36;3.97;;;1.17;;
31786;SDS011;18356;52.380;9.820;2023-02-26T08:23:02;5.47;;;1.40;;
31786;SDS011;18356;52.380;9.820;2023-02-26T08:25:28;5.70;;;1.30;;
31786;SDS011;18356;52.380;9.820;2023-02-26T08:27:54;3.83;;;1.63;;
31786;SDS011;18356;52.380;9.820;2023-02-26T08:30:22;7.60;;;1.40;;
31786;SDS011;18356;52.380;9.820;2023-02-26T08:32:48;7.20;;;1.30;;
31786;SDS011;18356;52.380;9.820;2023-02-26T08:35:15;4.97;;;0.93;;
31786;SDS011;18356;52.380;9.820;2023-02-26T08:37:41;8.10;;;1.20;;
31786;SDS011;18356;52.380;9.820;2023-02-26T08:40:07;4.03;;;1.00;;
31786;SDS011;18356;52.380;9.820;2023-02-26T08:42:34;4.07;;;1.10;;
31786;SDS011;18356;52.380;9.820;2023-02-26T08:45:00;1.27;;;0.63;;
31786;SDS011;18356;52.380;9.820;2023-02-26T08:47:26;3.40;;;0.77;;
31786;SDS011;18356;52.380;9.820;2023-02-26T08:49:52;5.27;;;1.03;;
31786;SDS011;18356;52.380;9.820;2023-02-26T08:52:18;4.97;;;0.83;;
31786;SDS011;18356;52.380;9.820;2023-02-26T08:54:44;7.97;;;1.77;;
31786;SDS011;18356;52.380;9.820;2023-02-26T08:57:10;6.67;;;1.23;;
31786;SDS011;18356;52.380;9.820;2023-02-26T08:59:37;4.80;;;0.97;;
31786;SDS011;18356;52.380;9.820;2023-02-26T09:02:03;5.70;;;1.03;;
31786;SDS011;18356;52.380;9.820;2023-02-26T09:04:29;7.13;;;1.03;;
31786;SDS011;18356;52.380;9.820;2023-02-26T09:06:55;8.47;;;1.20;;
31786;SDS011;18356;52.380;9.820;2023-02-26T09:09:21;5.97;;;1.00;;
31786;SDS011;18356;52.380;9.820;2023-02-26T09:11:47;5.13;;;1.03;;
31786;SDS011;18356;52.380;9.820;2023-02-26T09:14:13;8.10;;;1.53;;
31786;SDS011;18356;52.380;9.820;2023-02-26T09:16:39;7.03;;;0.70;;
31786;SDS011;18356;52.380;9.820;2023-02-26T09:19:05;1.40;;;0.53;;
31786;SDS011;18356;52.380;9.820;2023-02-26T09:21:31;9.77;;;1.30;;
31786;SDS011;18356;52.380;9.820;2023-02-26T09:23:57;3.10;;;0.73;;
31786;SDS011;18356;52.380;9.820;2023-02-26T09:26:24;5.43;;;1.00;;
31786;SDS011;18356;52.380;9.820;2023-02-26T09:28:50;3.23;;;0.80;;
31786;SDS011;18356;52.380;9.820;2023-02-26T09:31:16;6.50;;;1.17;;
31786;SDS011;18356;52.380;9.820;2023-02-26T09:33:42;3.67;;;1.00;;
31786;SDS011;18356;52.380;9.820;2023-02-26T09:36:08;7.40;;;1.20;;
31786;SDS011;18356;52.380;9.820;2023-02-26T09:38:34;2.13;;;0.60;;
31786;SDS011;18356;52.380;9.820;2023-02-26T09:41:08;3.33;;;1.00;;
31786;SDS011;18356;52.380;9.820;2023-02-26T09:46:20;2.83;;;1.00;;
31786;SDS011;18356;52.380;9.820;2023-02-26T09:48:49;4.27;;;1.33;;
31786;SDS011;18356;52.380;9.820;2023-02-26T09:51:18;3.47;;;0.97;;
31786;SDS011;18356;52.380;9.820;2023-02-26T09:53:45;6.13;;;0.90;;
31786;SDS011;18356;52.380;9.820;2023-02-26T09:56:14;2.90;;;0.80;;
31786;SDS011;18356;52.380;9.820;2023-02-26T09:58:41;2.93;;;0.70;;
31786;SDS011;18356;52.380;9.820;2023-02-26T10:01:13;4.73;;;0.87;;
31786;SDS011;18356;52.380;9.820;2023-02-26T10:06:29;3.23;;;0.57;;
31786;SDS011;18356;52.380;9.820;2023-02-26T10:16:54;3.97;;;1.67;;
31786;SDS011;18356;52.380;9.820;2023-02-26T10:19:22;4.40;;;0.83;;
31786;SDS011;18356;52.380;9.820;2023-02-26T10:21:53;6.60;;;0.90;;
31786;SDS011;18356;52.380;9.820;2023-02-26T10:24:25;4.07;;;0.67;;
31786;SDS011;18356;52.380;9.820;2023-02-26T10:27:03;2.20;;;0.70;;
31786;SDS011;18356;52.380;9.820;2023-02-26T10:29:35;3.13;;;0.77;;
31786;SDS011;18356;52.380;9.820;2023-02-26T10:34:30;3.20;;;0.97;;
31786;SDS011;18356;52.380;9.820;2023-02-26T10:37:09;4.10;;;0.80;;
31786;SDS011;18356;52.380;9.820;2023-02-26T10:39:46;1.37;;;0.60;;
31786;SDS011;18356;52.380;9.820;2023-02-26T10:42:26;3.77;;;1.00;;
31786;SDS011;18356;52.380;9.820;2023-02-26T10:45:05;5.03;;;0.83;;
31786;SDS011;18356;52.380;9.820;2023-02-26T10:50:09;2.03;;;0.50;;
31786;SDS011;18356;52.380;9.820;2023-02-26T10:52:36;3.93;;;0.90;;
31786;SDS011;18356;52.380;9.820;2023-02-26T10:55:09;3.93;;;0.80;;
31786;SDS011;18356;52.380;9.820;2023-02-26T10:57:41;2.97;;;0.80;;
31786;SDS011;18356;52.380;9.820;2023-02-26T11:00:13;1.93;;;0.60;;
31786;SDS011;18356;52.380;9.820;2023-02-26T11:02:42;3.80;;;0.70;;
31786;SDS011;18356;52.380;9.820;2023-02-26T11:05:14;1.43;;;0.63;;
31786;SDS011;18356;52.380;9.820;2023-02-26T11:07:40;6.43;;;0.60;;
31786;SDS011;18356;52.380;9.820;2023-02-26T11:10:15;3.27;;;0.70;;
31786;SDS011;18356;52.380;9.820;2023-02-26T11:12:41;3.67;;;0.90;;
31786;SDS011;18356;52.380;9.820;2023-02-26T11:15:16;3.33;;;0.70;;
31786;SDS011;18356;52.380;9.820;2023-02-26T11:17:42;4.03;;;0.70;;
31786;SDS011;18356;52.380;9.820;2023-02-26T11:22:36;4.20;;;0.70;;
31786;SDS011;18356;52.380;9.820;2023-02-26T11:25:03;3.57;;;0.57;;
31786;SDS011;18356;52.380;9.820;2023-02-26T11:27:31;2.97;;;0.80;;
31786;SDS011;18356;52.380;9.820;2023-02-26T11:29:58;2.67;;;0.70;;
31786;SDS011;18356;52.380;9.820;2023-02-26T11:32:29;3.13;;;0.77;;
31786;SDS011;18356;52.380;9.820;2023-02-26T11:34:55;2.87;;;0.90;;
31786;SDS011;18356;52.380;9.820;2023-02-26T11:37:22;2.53;;;0.80;;
31786;SDS011;18356;52.380;9.820;2023-02-26T11:39:56;1.97;;;0.63;;
31786;SDS011;18356;52.380;9.820;2023-02-26T11:42:22;4.17;;;0.80;;
31786;SDS011;18356;52.380;9.820;2023-02-26T11:44:49;3.97;;;0.70;;
31786;SDS011;18356;52.380;9.820;2023-02-26T11:47:17;1.43;;;0.57;;
31786;SDS011;18356;52.380;9.820;2023-02-26T11:49:45;2.40;;;1.00;;
31786;SDS011;18356;52.380;9.820;2023-02-26T11:52:22;3.43;;;0.67;;
31786;SDS011;18356;52.380;9.820;2023-02-26T11:54:54;4.00;;;0.70;;
31786;SDS011;18356;52.380;9.820;2023-02-26T11:57:25;2.67;;;0.70;;
31786;SDS011;18356;52.380;9.820;2023-02-26T11:59:52;1.27;;;0.50;;
31786;SDS011;18356;52.380;9.820;2023-02-26T12:02:20;4.23;;;0.80;;
31786;SDS011;18356;52.380;9.820;2023-02-26T12:04:48;2.40;;;0.50;;
31786;SDS011;18356;52.380;9.820;2023-02-26T12:07:15;3.60;;;0.80;;
31786;SDS011;18356;52.380;9.820;2023-02-26T12:09:41;3.33;;;0.80;;
31786;SDS011;18356;52.380;9.820;2023-02-26T12:17:30;2.43;;;0.57;;
31786;SDS011;18356;52.380;9.820;2023-02-26T12:22:49;2.60;;;0.70;;
31786;SDS011;18356;52.380;9.820;2023-02-26T12:35:36;2.60;;;0.50;;
31786;SDS011;18356;52.380;9.820;2023-02-26T12:38:07;0.90;;;0.47;;
31786;SDS011;18356;52.380;9.820;2023-02-26T12:43:54;1.90;;;0.60;;
31786;SDS011;18356;52.380;9.820;2023-02-26T12:49:01;1.97;;;0.70;;
31786;SDS011;18356;52.380;9.820;2023-02-26T12:51:36;1.87;;;0.67;;
31786;SDS011;18356;52.380;9.820;2023-02-26T12:54:13;1.37;;;0.60;;
31786;SDS011;18356;52.380;9.820;2023-02-26T12:59:22;1.70;;;0.60;;
31786;SDS011;18356;52.380;9.820;2023-02-26T13:10:05;3.73;;;0.60;;
31786;SDS011;18356;52.380;9.820;2023-02-26T13:17:30;2.37;;;0.60;;
31786;SDS011;18356;52.380;9.820;2023-02-26T13:20:09;3.97;;;0.80;;
31786;SDS011;18356;52.380;9.820;2023-02-26T13:22:46;1.40;;;0.60;;
31786;SDS011;18356;52.380;9.820;2023-02-26T13:27:58;2.97;;;0.93;;
31786;SDS011;18356;52.380;9.820;2023-02-26T13:30:27;1.53;;;0.50;;
31786;SDS011;18356;52.380;9.820;2023-02-26T13:32:57;1.70;;;0.57;;
31786;SDS011;18356;52.380;9.820;2023-02-26T13:35:27;2.87;;;0.70;;
31786;SDS011;18356;52.380;9.820;2023-02-26T13:37:55;1.63;;;0.60;;
31786;SDS011;18356;52.380;9.820;2023-02-26T13:48:47;2.10;;;0.60;;
31786;SDS011;18356;52.380;9.820;2023-02-26T13:54:01;2.53;;;0.83;;
31786;SDS011;18356;52.380;9.820;2023-02-26T14:07:44;1.13;;;0.50;;
31786;SDS011;18356;52.380;9.820;2023-02-26T14:21:53;4.87;;;0.70;;
31786;SDS011;18356;52.380;9.820;2023-02-26T14:32:11;1.57;;;0.50;;
31786;SDS011;18356;52.380;9.820;2023-02-26T14:34:42;2.13;;;0.60;;
31786;SDS011;18356;52.380;9.820;2023-02-26T14:37:11;1.27;;;0.40;;
31786;SDS011;18356;52.380;9.820;2023-02-26T14:42:10;3.07;;;0.70;;
31786;SDS011;18356;52.380;9.820;2023-02-26T14:44:39;2.77;;;0.60;;
31786;SDS011;18356;52.380;9.820;2023-02-26T14:47:05;1.67;;;0.70;;
31786;SDS011;18356;52.380;9.820;2023-02-26T14:49:33;1.77;;;0.80;;
31786;SDS011;18356;52.380;9.820;2023-02-26T14:59:33;2.53;;;0.63;;
31786;SDS011;18356;52.380;9.820;2023-02-26T15:12:36;1.97;;;0.60;;
31786;SDS011;18356;52.380;9.820;2023-02-26T15:15:09;3.10;;;0.83;;
31786;SDS011;18356;52.380;9.820;2023-02-26T15:17:47;1.73;;;0.60;;
31786;SDS011;18356;52.380;9.820;2023-02-26T15:20:28;1.57;;;0.77;;
31786;SDS011;18356;52.380;9.820;2023-02-26T15:25:43;0.93;;;0.30;;
31786;SDS011;18356;52.380;9.820;2023-02-26T15:28:13;2.43;;;0.57;;
31786;SDS011;18356;52.380;9.820;2023-02-26T15:30:40;3.43;;;0.80;;
31786;SDS011;18356;52.380;9.820;2023-02-26T15:33:11;5.33;;;0.80;;
31786;SDS011;18356;52.380;9.820;2023-02-26T15:35:37;1.37;;;0.43;;
31786;SDS011;18356;52.380;9.820;2023-02-26T15:38:03;1.57;;;0.50;;
31786;SDS011;18356;52.380;9.820;2023-02-26T15:40:31;3.03;;;0.90;;
31786;SDS011;18356;52.380;9.820;2023-02-26T15:42:58;4.57;;;0.60;;
31786;SDS011;18356;52.380;9.820;2023-02-26T15:45:26;1.30;;;0.50;;
31786;SDS011;18356;52.380;9.820;2023-02-26T15:47:54;2.60;;;0.63;;
31786;SDS011;18356;52.380;9.820;2023-02-26T15:50:22;2.57;;;0.60;;
31786;SDS011;18356;52.380;9.820;2023-02-26T15:52:51;1.47;;;0.50;;
31786;SDS011;18356;52.380;9.820;2023-02-26T15:55:19;2.37;;;0.70;;
31786;SDS011;18356;52.380;9.820;2023-02-26T15:57:46;1.20;;;0.50;;
31786;SDS011;18356;52.380;9.820;2023-02-26T16:00:16;1.90;;;0.50;;
31786;SDS011;18356;52.380;9.820;2023-02-26T16:02:48;2.20;;;0.57;;
31786;SDS011;18356;52.380;9.820;2023-02-26T16:05:14;3.57;;;0.50;;
31786;SDS011;18356;52.380;9.820;2023-02-26T16:07:41;3.40;;;0.80;;
31786;SDS011;18356;52.380;9.820;2023-02-26T16:10:14;1.23;;;0.57;;
31786;SDS011;18356;52.380;9.820;2023-02-26T16:12:41;2.17;;;0.70;;
31786;SDS011;18356;52.380;9.820;2023-02-26T16:15:12;1.93;;;0.70;;
31786;SDS011;18356;52.380;9.820;2023-02-26T16:17:41;4.13;;;0.60;;
31786;SDS011;18356;52.380;9.820;2023-02-26T16:20:19;1.50;;;0.60;;
31786;SDS011;18356;52.380;9.820;2023-02-26T16:22:46;1.83;;;0.60;;
31786;SDS011;18356;52.380;9.820;2023-02-26T16:25:21;3.33;;;0.60;;
31786;SDS011;18356;52.380;9.820;2023-02-26T16:27:59;3.27;;;0.93;;
31786;SDS011;18356;52.380;9.820;2023-02-26T16:30:33;2.80;;;0.73;;
31786;SDS011;18356;52.380;9.820;2023-02-26T16:33:00;0.60;;;0.30;;
31786;SDS011;18356;52.380;9.820;2023-02-26T16:35:27;1.90;;;0.50;;
31786;SDS011;18356;52.380;9.820;2023-02-26T16:37:59;2.83;;;0.60;;
31786;SDS011;18356;52.380;9.820;2023-02-26T16:40:26;1.43;;;0.50;;
31786;SDS011;18356;52.380;9.820;2023-02-26T16:42:53;3.13;;;0.60;;
31786;SDS011;18356;52.380;9.820;2023-02-26T16:48:02;3.23;;;0.70;;
31786;SDS011;18356;52.380;9.820;2023-02-26T16:50:30;3.97;;;0.70;;
31786;SDS011;18356;52.380;9.820;2023-02-26T16:55:29;3.73;;;0.90;;
31786;SDS011;18356;52.380;9.820;2023-02-26T16:57:56;3.13;;;0.90;;
31786;SDS011;18356;52.380;9.820;2023-02-26T17:00:24;2.60;;;0.97;;
31786;SDS011;18356;52.380;9.820;2023-02-26T17:03:17;3.57;;;0.73;;
31786;SDS011;18356;52.380;9.820;2023-02-26T17:05:53;4.73;;;0.90;;
31786;SDS011;18356;52.380;9.820;2023-02-26T17:08:20;3.63;;;0.83;;
31786;SDS011;18356;52.380;9.820;2023-02-26T17:10:50;2.13;;;0.70;;
31786;SDS011;18356;52.380;9.820;2023-02-26T17:13:23;2.23;;;0.80;;
31786;SDS011;18356;52.380;9.820;2023-02-26T17:15:49;4.87;;;1.00;;
31786;SDS011;18356;52.380;9.820;2023-02-26T17:18:17;3.07;;;1.00;;
31786;SDS011;18356;52.380;9.820;2023-02-26T17:20:43;3.90;;;1.30;;
31786;SDS011;18356;52.380;9.820;2023-02-26T17:23:10;2.30;;;0.97;;
31786;SDS011;18356;52.380;9.820;2023-02-26T17:25:38;4.50;;;1.30;;
31786;SDS011;18356;52.380;9.820;2023-02-26T17:28:05;4.67;;;1.30;;
31786;SDS011;18356;52.380;9.820;2023-02-26T17:30:32;3.50;;;1.70;;
31786;SDS011;18356;52.380;9.820;2023-02-26T17:32:59;6.37;;;1.83;;
31786;SDS011;18356;52.380;9.820;2023-02-26T17:35:25;5.80;;;1.80;;
31786;SDS011;18356;52.380;9.820;2023-02-26T17:37:53;6.53;;;1.77;;
31786;SDS011;18356;52.380;9.820;2023-02-26T17:40:23;5.77;;;1.80;;
31786;SDS011;18356;52.380;9.820;2023-02-26T17:42:49;5.93;;;1.87;;
31786;SDS011;18356;52.380;9.820;2023-02-26T17:45:16;5.13;;;2.00;;
31786;SDS011;18356;52.380;9.820;2023-02-26T17:47:42;4.20;;;1.80;;
31786;SDS011;18356;52.380;9.820;2023-02-26T17:50:17;3.90;;;1.20;;
31786;SDS011;18356;52.380;9.820;2023-02-26T17:52:45;3.40;;;1.50;;
31786;SDS011;18356;52.380;9.820;2023-02-26T17:55:11;4.27;;;1.47;;
31786;SDS011;18356;52.380;9.820;2023-02-26T17:57:37;6.87;;;2.13;;
31786;SDS011;18356;52.380;9.820;2023-02-26T18:00:03;6.37;;;1.57;;
31786;SDS011;18356;52.380;9.820;2023-02-26T18:02:29;4.97;;;1.90;;
31786;SDS011;18356;52.380;9.820;2023-02-26T18:04:55;6.50;;;2.07;;
31786;SDS011;18356;52.380;9.820;2023-02-26T18:07:21;4.70;;;2.07;;
31786;SDS011;18356;52.380;9.820;2023-02-26T18:09:48;4.87;;;2.10;;
31786;SDS011;18356;52.380;9.820;2023-02-26T18:12:15;10.47;;;2.30;;
31786;SDS011;18356;52.380;9.820;2023-02-26T18:14:41;7.77;;;2.90;;
31786;SDS011;18356;52.380;9.820;2023-02-26T18:17:17;9.53;;;3.97;;